Aérodrome :
LOGIN :

S'inscrire | Disclaimer

   EN    FR    IT 

 










Légende :    VFR   VFR Marginal   IFR   IFR Intensif   IFR Très Intensif
Visi : 
Plafond : 
>= 8 km
>= 3000ft
5 à 8 km
1000 à 3000 ft
1500m à 5 km
500 à 1000 ft
800 à 1500m
200 à 500 ft
< 800m
< 200 ft
Symboles :   Orages  Brouillard  Fortes neiges  Fortes précipitations  Vent > 20 kt
SIGMETs :   Divers  Orages  Givrage  Turbulence  Onde Orograph.  Cendres Volcan.






- Altitude de l'aérodrome : 74 ft
- Code IATA : EIN


EHEH - Eindhoven

DERNIER METAR :
  • 221425Z AUTO VRB06KT 9999 FEW360 23/09 Q1013 BLU NOSIG

METARs EXPIRÉS :
  • 221355Z AUTO 06007G30KT 030V190 9999 NCD 23/09 Q1013 BLU NOSIG
  • 221325Z AUTO VRB03KT 9999 BKN100 22/09 Q1013 BLU NOSIG
  • 221255Z AUTO VRB05KT 9999 NCD 22/09 Q1014 BLU NOSIG
  • 221225Z AUTO VRB05KT 9999 NCD 22/09 Q1014 BLU NOSIG
  • 221155Z AUTO VRB05KT 9999 FEW046 21/09 Q1015 BLU NOSIG

TAF TAF EHEH
Valide du 22 à 12h jusqu'au 23 à 18h UTC


221125Z 2212/2318 13005KT 9999 SCT045
TEMPO 2313/2318 4500 SHRA FEW016 SCT030CB
PROB40
TEMPO 2314/2318 32010G22KT 3000 TSRA FEW014 SCT025CB



MET'MAP, la Météo Aéronautique d'un coup d'oeil ! - Copyright ORBIFLY Décembre 2007 - Disclaimer

ORBIFLY MET'MAP TEAM :

Programmation & Développement : Alexandra Zaïnal
Sur une idée originale de : Baudouin d'Aumeries
Soutien technique & logistique : Manuel Goepfert
Assistance : Marc-Olivier Méhu

Contact : metmap@orbifly.com




SOURCES & CREDITS :

   NOAA